createdAt,value
2023-04-30T00:00:21.747Z,30.93
2023-04-30T00:02:49.833Z,31.63
2023-04-30T00:05:18.164Z,32.90
2023-04-30T00:07:46.127Z,33.13
2023-04-30T00:10:15.469Z,37.40
2023-04-30T00:12:43.437Z,35.90
2023-04-30T00:15:12.647Z,34.00
2023-04-30T00:17:40.636Z,32.23
2023-04-30T00:20:09.474Z,31.03
2023-04-30T00:22:37.435Z,33.00
2023-04-30T00:25:06.016Z,32.23
2023-04-30T00:27:35.317Z,34.67
2023-04-30T00:30:03.514Z,31.97
2023-04-30T00:32:31.529Z,26.17
2023-04-30T00:34:59.489Z,27.47
2023-04-30T00:37:27.479Z,25.40
2023-04-30T00:39:55.697Z,27.50
2023-04-30T00:42:24.173Z,28.37
2023-04-30T00:44:53.489Z,28.97
2023-04-30T00:47:21.639Z,30.40
2023-04-30T00:49:50.148Z,30.47
2023-04-30T00:52:18.344Z,30.00
2023-04-30T00:54:46.524Z,32.77
2023-04-30T00:57:14.999Z,34.07
2023-04-30T00:59:43.337Z,34.83
2023-04-30T01:02:13.122Z,32.50
2023-04-30T01:04:41.261Z,32.57
2023-04-30T01:07:09.345Z,31.77
2023-04-30T01:09:37.633Z,33.73
2023-04-30T01:12:14.542Z,32.43
2023-04-30T01:14:54.298Z,36.37
2023-04-30T01:17:32.099Z,32.63
2023-04-30T01:20:01.351Z,34.07
2023-04-30T01:22:38.255Z,40.33
2023-04-30T01:25:23.819Z,36.97
2023-04-30T01:28:04.528Z,33.90
2023-04-30T01:30:33.455Z,37.87
2023-04-30T01:33:01.817Z,35.27
2023-04-30T01:35:44.773Z,31.73
2023-04-30T01:38:21.947Z,34.93
2023-04-30T01:40:55.742Z,30.60
2023-04-30T01:43:34.770Z,36.93
2023-04-30T01:46:14.963Z,30.27
2023-04-30T01:48:52.338Z,35.00
2023-04-30T01:51:26.016Z,36.60
2023-04-30T01:53:58.932Z,35.07
2023-04-30T01:56:32.419Z,30.70
2023-04-30T01:59:02.624Z,33.33
2023-04-30T02:01:32.002Z,27.57
2023-04-30T02:04:00.717Z,27.90
2023-04-30T02:06:30.266Z,30.50
2023-04-30T02:09:03.288Z,26.60
2023-04-30T02:11:31.502Z,23.97
2023-04-30T02:14:00.876Z,22.53
2023-04-30T02:16:28.926Z,20.57
2023-04-30T02:18:56.998Z,21.07
2023-04-30T02:21:25.038Z,21.37
2023-04-30T02:23:52.957Z,19.80
2023-04-30T02:26:21.244Z,21.90
2023-04-30T02:28:49.257Z,19.50
2023-04-30T02:31:18.622Z,16.97
2023-04-30T02:33:46.623Z,14.87
2023-04-30T02:36:14.617Z,17.00
2023-04-30T02:38:42.640Z,15.57
2023-04-30T02:41:10.656Z,15.67
2023-04-30T02:43:38.746Z,18.97
2023-04-30T02:46:06.795Z,19.70
2023-04-30T02:48:36.204Z,25.43
2023-04-30T02:51:04.788Z,25.37
2023-04-30T02:53:32.759Z,28.30
2023-04-30T02:56:00.749Z,30.80
2023-04-30T02:58:28.731Z,34.20
2023-04-30T03:00:57.490Z,34.43
2023-04-30T03:03:25.729Z,33.73
2023-04-30T03:05:56.744Z,31.03
2023-04-30T03:08:24.853Z,25.77
2023-04-30T03:10:53.260Z,23.50
2023-04-30T03:13:21.342Z,22.50
2023-04-30T03:15:49.401Z,23.03
2023-04-30T03:18:17.504Z,24.17
2023-04-30T03:20:45.536Z,22.93
2023-04-30T03:23:15.017Z,23.00
2023-04-30T03:25:43.037Z,23.17
2023-04-30T03:28:11.029Z,26.80
2023-04-30T03:30:40.207Z,26.53
2023-04-30T03:33:08.422Z,25.77
2023-04-30T03:35:36.465Z,22.67
2023-04-30T03:38:04.551Z,23.73
2023-04-30T03:40:33.923Z,22.73
2023-04-30T03:43:01.890Z,24.80
2023-04-30T03:45:30.017Z,20.53
2023-04-30T03:47:57.986Z,24.87
2023-04-30T03:50:26.106Z,20.77
2023-04-30T03:52:54.125Z,24.10
2023-04-30T03:55:22.248Z,24.50
2023-04-30T03:57:51.936Z,22.60
2023-04-30T04:00:20.039Z,22.57
2023-04-30T04:02:48.080Z,22.53
2023-04-30T04:05:16.381Z,23.13
2023-04-30T04:07:44.360Z,23.43
2023-04-30T04:10:12.498Z,26.10
2023-04-30T04:12:40.606Z,23.93
2023-04-30T04:15:11.160Z,23.30
2023-04-30T04:17:39.170Z,22.17
2023-04-30T04:20:08.730Z,26.53
2023-04-30T04:22:36.744Z,28.03
2023-04-30T04:25:04.908Z,32.90
2023-04-30T04:27:33.389Z,37.80
2023-04-30T04:30:02.026Z,43.13
2023-04-30T04:32:32.793Z,41.30
2023-04-30T04:35:01.407Z,40.13
2023-04-30T04:37:29.377Z,37.63
2023-04-30T04:39:57.391Z,31.90
2023-04-30T04:42:25.354Z,37.97
2023-04-30T04:44:53.354Z,34.30
2023-04-30T04:47:22.966Z,34.27
2023-04-30T04:49:52.484Z,39.03
2023-04-30T04:52:20.562Z,34.40
2023-04-30T04:54:48.776Z,33.00
2023-04-30T04:57:16.779Z,34.33
2023-04-30T04:59:45.104Z,34.90
2023-04-30T05:02:13.078Z,33.43
2023-04-30T05:04:41.934Z,29.43
2023-04-30T05:07:11.373Z,31.97
2023-04-30T05:09:39.442Z,32.30
2023-04-30T05:12:07.422Z,31.50
2023-04-30T05:14:35.721Z,29.30
2023-04-30T05:17:03.772Z,29.87
2023-04-30T05:19:31.733Z,26.67
2023-04-30T05:22:01.395Z,24.30
2023-04-30T05:24:31.017Z,22.43
2023-04-30T05:26:59.074Z,30.07
2023-04-30T05:29:27.034Z,22.83
2023-04-30T05:31:55.137Z,26.33
2023-04-30T05:34:23.133Z,30.43
2023-04-30T05:36:51.116Z,34.37
2023-04-30T05:39:19.142Z,29.50
2023-04-30T05:41:49.095Z,27.33
2023-04-30T05:44:17.140Z,30.13
2023-04-30T05:46:45.188Z,31.00
2023-04-30T05:49:13.134Z,31.77
2023-04-30T05:51:41.084Z,31.13
2023-04-30T05:54:09.095Z,31.37
2023-04-30T05:56:37.097Z,32.23
2023-04-30T05:59:06.476Z,30.20
2023-04-30T06:01:34.483Z,30.57
2023-04-30T06:04:04.628Z,23.07
2023-04-30T06:06:32.834Z,20.33
2023-04-30T06:09:00.879Z,22.83
2023-04-30T06:11:28.880Z,21.97
2023-04-30T06:13:56.984Z,18.63
2023-04-30T06:16:26.463Z,17.67
2023-04-30T06:18:54.502Z,18.37
2023-04-30T06:21:25.951Z,16.50
2023-04-30T06:23:54.043Z,20.63
2023-04-30T06:26:22.038Z,18.87
2023-04-30T06:28:49.995Z,19.37
2023-04-30T06:31:18.080Z,18.63
2023-04-30T06:33:47.472Z,17.70
2023-04-30T06:36:15.554Z,16.67
2023-04-30T06:38:44.060Z,19.27
2023-04-30T06:41:12.038Z,19.50
2023-04-30T06:43:40.150Z,16.33
2023-04-30T06:46:08.248Z,15.37
2023-04-30T06:48:36.234Z,15.60
2023-04-30T06:51:05.922Z,14.83
2023-04-30T06:53:33.908Z,15.07
2023-04-30T06:56:02.196Z,16.20
2023-04-30T06:58:30.198Z,14.40
2023-04-30T07:00:58.274Z,15.13
2023-04-30T07:03:27.340Z,17.80
2023-04-30T07:05:55.398Z,18.77
2023-04-30T07:08:24.762Z,16.93
2023-04-30T07:10:52.757Z,13.13
2023-04-30T07:13:20.719Z,16.07
2023-04-30T07:15:48.806Z,13.68
2023-04-30T07:18:17.259Z,16.15
2023-04-30T07:20:45.583Z,15.03
2023-04-30T07:23:13.555Z,13.50
2023-04-30T07:25:42.901Z,14.80
2023-04-30T07:28:11.004Z,14.23
2023-04-30T07:30:39.066Z,15.43
2023-04-30T07:33:08.428Z,13.67
2023-04-30T07:35:36.585Z,14.00
2023-04-30T07:38:05.883Z,14.27
2023-04-30T07:40:35.860Z,14.73
2023-04-30T07:43:06.446Z,12.52
2023-04-30T07:45:35.262Z,14.53
2023-04-30T07:48:03.657Z,10.80
2023-04-30T07:50:33.995Z,11.07
2023-04-30T07:53:03.456Z,13.07
2023-04-30T07:55:31.563Z,15.57
2023-04-30T07:57:59.871Z,10.70
2023-04-30T08:00:31.032Z,14.50
2023-04-30T08:03:00.501Z,9.47
2023-04-30T08:05:28.808Z,11.17
2023-04-30T08:07:56.810Z,10.47
2023-04-30T08:10:25.378Z,12.03
2023-04-30T08:12:54.153Z,12.23
2023-04-30T08:15:22.572Z,9.33
2023-04-30T08:17:52.641Z,11.65
2023-04-30T08:20:23.370Z,10.82
2023-04-30T08:22:51.531Z,9.45
2023-04-30T08:25:19.576Z,9.05
2023-04-30T08:27:47.545Z,8.57
2023-04-30T08:30:15.661Z,10.10
2023-04-30T08:32:43.662Z,9.88
2023-04-30T08:35:13.235Z,11.52
2023-04-30T08:37:41.401Z,7.85
2023-04-30T08:40:12.046Z,8.23
2023-04-30T08:42:47.196Z,9.98
2023-04-30T08:45:16.258Z,8.95
2023-04-30T08:47:46.263Z,8.50
2023-04-30T08:50:15.652Z,7.63
2023-04-30T08:52:44.816Z,8.63
2023-04-30T08:55:12.930Z,9.38
2023-04-30T08:57:40.928Z,9.57
2023-04-30T09:00:10.510Z,6.38
2023-04-30T09:02:42.657Z,7.70
2023-04-30T09:05:13.262Z,6.70
2023-04-30T09:08:01.083Z,10.98
2023-04-30T09:10:35.058Z,9.18
2023-04-30T09:13:04.551Z,7.93
2023-04-30T09:15:33.481Z,7.20
2023-04-30T09:18:09.192Z,6.72
2023-04-30T09:20:37.515Z,7.70
2023-04-30T09:23:11.515Z,6.22
2023-04-30T09:25:41.687Z,10.02
2023-04-30T09:28:11.376Z,6.95
2023-04-30T09:30:40.093Z,7.88
2023-04-30T09:33:10.877Z,8.43
2023-04-30T09:35:41.767Z,6.68
2023-04-30T09:38:27.366Z,8.65
2023-04-30T09:40:55.471Z,8.30
2023-04-30T09:43:23.517Z,6.55
2023-04-30T09:45:52.240Z,7.75
2023-04-30T09:48:23.165Z,8.57
2023-04-30T09:50:51.882Z,5.90
2023-04-30T09:53:21.982Z,6.03
2023-04-30T09:55:51.354Z,6.03
2023-04-30T09:58:20.818Z,6.50
2023-04-30T10:00:50.659Z,7.10
2023-04-30T10:03:19.277Z,5.82
2023-04-30T10:05:48.879Z,6.65
2023-04-30T10:08:26.013Z,7.93
2023-04-30T10:11:00.199Z,8.82
2023-04-30T10:13:32.048Z,7.53
2023-04-30T10:16:03.274Z,6.82
2023-04-30T10:18:35.442Z,7.50
2023-04-30T10:21:10.164Z,6.20
2023-04-30T10:23:42.081Z,6.22
2023-04-30T10:26:11.279Z,6.28
2023-04-30T10:28:40.784Z,7.38
2023-04-30T10:31:10.800Z,8.90
2023-04-30T10:33:49.803Z,7.10
2023-04-30T10:36:26.532Z,5.40
2023-04-30T10:38:56.255Z,5.68
2023-04-30T10:41:25.611Z,9.50
2023-04-30T10:43:59.043Z,8.80
2023-04-30T10:46:28.920Z,8.80
2023-04-30T10:48:57.094Z,6.15
2023-04-30T10:51:25.108Z,7.05
2023-04-30T10:53:55.767Z,7.50
2023-04-30T10:56:34.771Z,9.02
2023-04-30T10:59:03.513Z,10.48
2023-04-30T11:01:32.768Z,8.02
2023-04-30T11:04:08.553Z,6.60
2023-04-30T11:06:51.438Z,7.93
2023-04-30T11:09:21.258Z,9.38
2023-04-30T11:11:50.352Z,6.78
2023-04-30T11:14:23.031Z,7.63
2023-04-30T11:16:54.423Z,10.10
2023-04-30T11:19:24.885Z,11.20
2023-04-30T11:22:17.227Z,7.05
2023-04-30T11:24:53.917Z,8.68
2023-04-30T11:27:23.120Z,10.07
2023-04-30T11:29:52.154Z,9.52
2023-04-30T11:32:20.665Z,7.63
2023-04-30T11:34:49.221Z,7.07
2023-04-30T11:37:20.822Z,8.68
2023-04-30T11:39:50.047Z,8.23
2023-04-30T11:42:20.029Z,7.75
2023-04-30T11:44:48.437Z,8.02
2023-04-30T11:47:16.951Z,10.35
2023-04-30T11:49:44.919Z,6.80
2023-04-30T11:52:14.741Z,6.93
2023-04-30T11:54:42.742Z,7.20
2023-04-30T11:57:10.787Z,6.32
2023-04-30T11:59:43.839Z,6.70
2023-04-30T12:02:16.610Z,10.52
2023-04-30T12:04:45.378Z,7.90
2023-04-30T12:07:13.368Z,7.47
2023-04-30T12:09:54.582Z,9.40
2023-04-30T12:12:29.814Z,6.00
2023-04-30T12:14:59.450Z,8.02
2023-04-30T12:17:35.770Z,7.45
2023-04-30T12:20:05.165Z,8.70
2023-04-30T12:22:33.644Z,7.03
2023-04-30T12:25:08.164Z,5.95
2023-04-30T12:27:36.403Z,5.80
2023-04-30T12:30:09.364Z,7.65
2023-04-30T12:32:41.921Z,7.85
2023-04-30T12:35:14.436Z,6.82
2023-04-30T12:37:44.536Z,8.27
2023-04-30T12:40:14.202Z,6.00
2023-04-30T12:42:43.716Z,7.47
2023-04-30T12:45:13.880Z,9.30
2023-04-30T12:47:42.509Z,7.20
2023-04-30T12:50:12.402Z,8.75
2023-04-30T12:52:41.463Z,10.80
2023-04-30T12:55:16.966Z,8.50
2023-04-30T12:58:07.309Z,8.68
2023-04-30T13:00:47.653Z,8.15
2023-04-30T13:03:16.922Z,7.47
2023-04-30T13:05:49.539Z,6.72
2023-04-30T13:08:18.184Z,7.45
2023-04-30T13:10:46.638Z,11.95
2023-04-30T13:13:15.568Z,7.72
2023-04-30T13:15:44.234Z,8.63
2023-04-30T13:18:15.806Z,6.45
2023-04-30T13:20:44.770Z,10.85
2023-04-30T13:23:13.034Z,7.43
2023-04-30T13:25:42.071Z,8.48
2023-04-30T13:28:10.230Z,8.10
2023-04-30T13:30:38.401Z,7.10
2023-04-30T13:33:06.506Z,11.13
2023-04-30T13:35:35.846Z,8.30
2023-04-30T13:38:03.847Z,14.52
2023-04-30T13:40:31.790Z,12.65
2023-04-30T13:42:59.801Z,8.48
2023-04-30T13:45:27.771Z,6.88
2023-04-30T13:47:55.800Z,7.00
2023-04-30T13:50:23.775Z,10.65
2023-04-30T13:52:53.063Z,10.40
2023-04-30T13:55:21.205Z,6.15
2023-04-30T13:57:49.154Z,6.85
2023-04-30T14:00:17.777Z,6.05
2023-04-30T14:02:46.172Z,6.53
2023-04-30T14:05:14.199Z,6.13
2023-04-30T14:07:43.269Z,7.40
2023-04-30T14:10:12.836Z,8.00
2023-04-30T14:12:40.808Z,7.72
2023-04-30T14:15:09.488Z,9.48
2023-04-30T14:17:37.745Z,9.38
2023-04-30T14:20:06.620Z,8.75
2023-04-30T14:22:38.599Z,9.65
2023-04-30T14:25:07.934Z,11.02
2023-04-30T14:27:37.489Z,6.68
2023-04-30T14:30:06.218Z,7.57
2023-04-30T14:32:34.242Z,7.88
2023-04-30T14:35:02.694Z,6.85
2023-04-30T14:37:30.660Z,7.65
2023-04-30T14:39:58.823Z,5.63
2023-04-30T14:42:26.899Z,9.45
2023-04-30T14:44:56.249Z,8.15
2023-04-30T14:47:27.377Z,6.85
2023-04-30T14:49:55.829Z,6.63
2023-04-30T14:52:24.080Z,5.70
2023-04-30T14:54:52.103Z,7.43
2023-04-30T14:57:20.144Z,7.47
2023-04-30T14:59:48.197Z,6.53
2023-04-30T15:02:17.611Z,7.95
2023-04-30T15:04:46.371Z,6.43
2023-04-30T15:07:14.565Z,8.35
2023-04-30T15:09:44.700Z,7.07
2023-04-30T15:12:14.409Z,7.32
2023-04-30T15:14:42.387Z,8.45
2023-04-30T15:17:11.255Z,8.00
2023-04-30T15:19:40.557Z,7.85
2023-04-30T15:22:08.849Z,6.93
2023-04-30T15:24:37.033Z,6.13
2023-04-30T15:27:05.402Z,7.68
2023-04-30T15:29:33.455Z,7.43
2023-04-30T15:32:01.575Z,6.43
2023-04-30T15:34:29.749Z,9.55
2023-04-30T15:36:59.141Z,5.95
2023-04-30T15:39:27.178Z,6.78
2023-04-30T15:41:55.141Z,6.40
2023-04-30T15:44:23.135Z,6.03
2023-04-30T15:46:52.299Z,5.85
2023-04-30T15:49:21.250Z,7.13
2023-04-30T15:51:49.208Z,8.05
2023-04-30T15:54:18.577Z,10.65
2023-04-30T15:56:46.765Z,7.57
2023-04-30T15:59:17.722Z,7.22
2023-04-30T16:01:47.538Z,6.93
2023-04-30T16:04:15.539Z,5.88
2023-04-30T16:06:43.725Z,9.73
2023-04-30T16:09:12.442Z,7.63
2023-04-30T16:11:41.808Z,6.53
2023-04-30T16:14:09.891Z,6.13
2023-04-30T16:16:37.882Z,5.80
2023-04-30T16:19:07.626Z,7.75
2023-04-30T16:21:38.613Z,6.60
2023-04-30T16:24:07.087Z,7.07
2023-04-30T16:26:36.192Z,5.88
2023-04-30T16:29:05.762Z,12.45
2023-04-30T16:31:34.044Z,5.78
2023-04-30T16:34:02.059Z,8.77
2023-04-30T16:36:30.315Z,10.07
2023-04-30T16:38:58.366Z,10.32
2023-04-30T16:41:26.533Z,5.93
2023-04-30T16:43:54.465Z,9.50
2023-04-30T16:46:23.817Z,6.00
2023-04-30T16:48:51.889Z,9.40
2023-04-30T16:51:19.900Z,6.27
2023-04-30T16:53:47.977Z,7.57
2023-04-30T16:56:16.017Z,8.65
2023-04-30T16:58:44.034Z,7.57
2023-04-30T17:01:12.188Z,11.23
2023-04-30T17:03:41.584Z,8.05
2023-04-30T17:06:10.315Z,6.78
2023-04-30T17:08:40.359Z,10.43
2023-04-30T17:11:08.458Z,9.23
2023-04-30T17:13:37.588Z,9.80
2023-04-30T17:16:06.309Z,8.18
2023-04-30T17:18:34.269Z,17.13
2023-04-30T17:21:03.591Z,17.67
2023-04-30T17:23:31.967Z,13.00
2023-04-30T17:26:01.210Z,12.67
2023-04-30T17:28:29.182Z,10.55
2023-04-30T17:30:58.346Z,9.35
2023-04-30T17:33:26.597Z,9.15
2023-04-30T17:35:55.036Z,10.63
2023-04-30T17:38:24.422Z,9.63
2023-04-30T17:40:53.498Z,13.15
2023-04-30T17:43:21.504Z,10.95
2023-04-30T17:45:51.148Z,9.13
2023-04-30T17:48:19.194Z,9.82
2023-04-30T17:50:47.477Z,9.63
2023-04-30T17:53:15.489Z,11.13
2023-04-30T17:55:44.927Z,9.20
2023-04-30T17:58:12.872Z,9.47
2023-04-30T18:00:42.680Z,8.70
2023-04-30T18:03:10.817Z,10.90
2023-04-30T18:05:39.612Z,13.67
2023-04-30T18:08:07.609Z,9.77
2023-04-30T18:10:37.067Z,10.50
2023-04-30T18:13:06.471Z,13.63
2023-04-30T18:15:34.482Z,10.17
2023-04-30T18:18:02.487Z,8.73
2023-04-30T18:20:30.553Z,10.17
2023-04-30T18:22:58.634Z,12.13
2023-04-30T18:25:27.643Z,14.67
2023-04-30T18:27:55.667Z,9.23
2023-04-30T18:30:25.047Z,15.10
2023-04-30T18:32:53.043Z,11.60
2023-04-30T18:35:21.738Z,11.90
2023-04-30T18:37:50.216Z,12.67
2023-04-30T18:40:18.248Z,9.17
2023-04-30T18:42:46.442Z,11.60
2023-04-30T18:45:15.527Z,9.60
2023-04-30T18:47:45.216Z,12.77
2023-04-30T18:50:18.053Z,11.30
2023-04-30T18:52:46.193Z,14.80
2023-04-30T18:55:14.431Z,14.00
2023-04-30T18:57:43.330Z,12.00
2023-04-30T19:00:14.200Z,12.57
2023-04-30T19:02:43.022Z,12.50
2023-04-30T19:05:12.519Z,13.87
2023-04-30T19:07:41.032Z,10.33
2023-04-30T19:10:09.726Z,14.13
2023-04-30T19:12:37.715Z,13.40
2023-04-30T19:15:08.069Z,34.60
2023-04-30T19:17:36.429Z,24.47
2023-04-30T19:20:04.777Z,27.13
2023-04-30T19:22:34.178Z,29.80
2023-04-30T19:25:02.175Z,17.30
2023-04-30T19:27:30.142Z,15.13
2023-04-30T19:29:58.573Z,23.67
2023-04-30T19:32:27.297Z,19.43
2023-04-30T19:34:55.336Z,18.77
2023-04-30T19:37:25.091Z,21.13
2023-04-30T19:39:54.633Z,18.77
2023-04-30T19:42:22.798Z,18.67
2023-04-30T19:44:52.932Z,15.27
2023-04-30T19:47:20.933Z,16.67
2023-04-30T19:49:49.074Z,16.17
2023-04-30T19:52:17.084Z,15.20
2023-04-30T19:54:48.621Z,16.30
2023-04-30T19:57:18.745Z,14.27
2023-04-30T19:59:47.366Z,11.67
2023-04-30T20:02:15.780Z,11.30
2023-04-30T20:04:43.889Z,17.47
2023-04-30T20:07:12.044Z,22.93
2023-04-30T20:09:39.968Z,17.93
2023-04-30T20:12:07.909Z,18.10
2023-04-30T20:14:37.327Z,19.70
2023-04-30T20:17:05.321Z,20.37
2023-04-30T20:19:33.724Z,19.80
2023-04-30T20:22:02.257Z,22.90
2023-04-30T20:24:30.208Z,25.60
2023-04-30T20:26:58.189Z,30.10
2023-04-30T20:29:26.250Z,26.50
2023-04-30T20:31:55.686Z,25.80
2023-04-30T20:34:24.152Z,25.70
2023-04-30T20:36:52.682Z,22.97
2023-04-30T20:39:20.775Z,25.10
2023-04-30T20:41:49.054Z,24.07
2023-04-30T20:44:17.152Z,27.67
2023-04-30T20:46:45.500Z,25.90
2023-04-30T20:49:14.873Z,22.90
2023-04-30T20:51:42.842Z,26.77
2023-04-30T20:54:10.938Z,21.03
2023-04-30T20:56:39.018Z,28.63
2023-04-30T20:59:07.012Z,22.50
2023-04-30T21:01:35.124Z,25.20
2023-04-30T21:04:03.545Z,21.17
2023-04-30T21:06:33.526Z,22.17
2023-04-30T21:09:01.582Z,22.17
2023-04-30T21:11:29.563Z,31.67
2023-04-30T21:13:57.837Z,21.10
2023-04-30T21:16:26.415Z,21.30
2023-04-30T21:18:54.436Z,21.73
2023-04-30T21:21:22.471Z,18.70
2023-04-30T21:23:51.762Z,20.37
2023-04-30T21:26:19.895Z,20.50
2023-04-30T21:28:48.179Z,24.07
2023-04-30T21:31:16.571Z,21.70
2023-04-30T21:33:46.122Z,21.20
2023-04-30T21:36:16.398Z,24.47
2023-04-30T21:38:44.422Z,23.33
2023-04-30T21:41:16.503Z,22.07
2023-04-30T21:43:45.261Z,22.63
2023-04-30T21:46:14.424Z,22.90
2023-04-30T21:48:42.593Z,28.50
2023-04-30T21:51:14.960Z,31.30
2023-04-30T21:53:43.640Z,31.47
2023-04-30T21:56:12.403Z,34.57
2023-04-30T21:58:41.808Z,34.40
2023-04-30T22:01:09.876Z,30.97
2023-04-30T22:03:37.931Z,30.20
2023-04-30T22:06:06.319Z,28.50
2023-04-30T22:08:34.426Z,30.07
2023-04-30T22:11:03.481Z,25.87
2023-04-30T22:13:31.737Z,25.27
2023-04-30T22:16:01.245Z,21.60
2023-04-30T22:18:29.403Z,28.50
2023-04-30T22:20:57.417Z,30.23
2023-04-30T22:23:25.354Z,21.87
2023-04-30T22:25:53.425Z,23.97
2023-04-30T22:28:23.369Z,28.33
2023-04-30T22:30:51.351Z,25.80
2023-04-30T22:33:22.058Z,22.20
2023-04-30T22:35:50.553Z,24.13
2023-04-30T22:38:18.802Z,21.33
2023-04-30T22:40:46.875Z,25.17
2023-04-30T22:43:15.142Z,32.70
2023-04-30T22:45:43.280Z,25.07
2023-04-30T22:48:11.871Z,22.30
2023-04-30T22:50:41.290Z,21.07
2023-04-30T22:53:10.316Z,22.23
2023-04-30T22:55:38.268Z,23.70
2023-04-30T22:58:06.256Z,28.00
2023-04-30T23:00:34.295Z,27.03
2023-04-30T23:03:02.431Z,26.27
2023-04-30T23:05:30.638Z,26.67
2023-04-30T23:07:59.958Z,35.50
2023-04-30T23:10:27.950Z,21.77
2023-04-30T23:12:56.694Z,26.93
2023-04-30T23:15:24.702Z,21.23
2023-04-30T23:17:54.282Z,20.77
2023-04-30T23:20:22.943Z,25.50
2023-04-30T23:22:51.044Z,25.37
2023-04-30T23:25:20.384Z,24.90
2023-04-30T23:27:48.375Z,22.27
2023-04-30T23:30:16.710Z,21.77
2023-04-30T23:32:44.716Z,22.67
2023-04-30T23:35:12.718Z,25.10
2023-04-30T23:37:40.680Z,23.57
2023-04-30T23:40:10.267Z,25.13
2023-04-30T23:42:39.614Z,23.77
2023-04-30T23:45:08.853Z,24.83
2023-04-30T23:47:37.127Z,30.83
2023-04-30T23:50:05.400Z,24.67
2023-04-30T23:52:33.425Z,26.30
2023-04-30T23:55:01.412Z,31.23
2023-04-30T23:57:29.390Z,30.37
2023-04-30T23:59:59.259Z,27.13
